^^
Your Local Weather - Clay, NY Station Historical Data
Daily Summary for February 8, 2018 Units:  Both    English   Metric
« Previous Day
Next Day »
Daily Weekly Monthly Yearly Custom
  High: Low: Average:
Temperature: 23.1 °F /  -4.9 °C 15.5 °F /  -9.2 °C 19.5 °F /  -6.9 °C
Dew Point: 19.0 °F /  -7.2 °C 9.6 °F /  -12.4 °C 15.3 °F /  -9.3 °C
Humidity: 91% 74% 84%
Wind Speed: 5.0mph /  8km/h - 1.5mph /  2.4km/h
Wind Gust: 10.0mph /  16.1km/h - -
Wind- - WSW
Pressure: 30.41 in /  1029.7 hPa 30.22 in /  1023.2 hPa -
Precipitation: 0.01 in /  0.25 mm    
Historical Graphs
 
 
Tabular Data for February 8, 2018
Time Temperature Dew Point Pressure Wind Wind Speed Wind Gust Humidity Rainfall Rate (Hourly) solar
00:02 20.7 °F /  -6.3 °C 18.5 °F /  -7.5 °C 30.22in /  1023.2hPa Calm     91% 0.00in /  0mm 0 W/m2
00:08 20.8 °F /  -6.2 °C 18.6 °F /  -7.4 °C 30.23in /  1023.6hPa Calm     91% 0.00in /  0mm 0 W/m2
00:14 20.8 °F /  -6.2 °C 18.6 °F /  -7.4 °C 30.23in /  1023.6hPa Calm   1.0mph /  1.6km/h 91% 0.00in /  0mm 0 W/m2
00:20 20.8 °F /  -6.2 °C 18.6 °F /  -7.4 °C 30.23in /  1023.6hPa Calm     91% 0.00in /  0mm 0 W/m2
00:26 20.9 °F /  -6.2 °C 18.7 °F /  -7.4 °C 30.23in /  1023.6hPa Calm     91% 0.00in /  0mm 0 W/m2
00:32 20.9 °F /  -6.2 °C 18.7 °F /  -7.4 °C 30.23in /  1023.6hPa Calm     91% 0.00in /  0mm 0 W/m2
00:38 21.0 °F /  -6.1 °C 18.8 °F /  -7.3 °C 30.23in /  1023.6hPa Calm   1.0mph /  1.6km/h 91% 0.00in /  0mm 0 W/m2
00:44 21.0 °F /  -6.1 °C 18.8 °F /  -7.3 °C 30.23in /  1023.6hPa Calm     91% 0.00in /  0mm 0 W/m2
00:50 21.1 °F /  -6.1 °C 18.9 °F /  -7.3 °C 30.23in /  1023.6hPa Calm     91% 0.00in /  0mm 0 W/m2
00:56 21.1 °F /  -6.1 °C 18.9 °F /  -7.3 °C 30.23in /  1023.6hPa Calm     91% 0.00in /  0mm 0 W/m2
01:02 21.1 °F /  -6.1 °C 18.9 °F /  -7.3 °C 30.23in /  1023.6hPa Calm   2.0mph /  3.2km/h 91% 0.00in /  0mm 0 W/m2
01:08 20.8 °F /  -6.2 °C 18.6 °F /  -7.4 °C 30.23in /  1023.6hPa NE 1.0mph /  1.6km/h 2.0mph /  3.2km/h 91% 0.00in /  0mm 0 W/m2
01:14 20.4 °F /  -6.4 °C 18.2 °F /  -7.7 °C 30.23in /  1023.6hPa NNE 1.0mph /  1.6km/h 2.0mph /  3.2km/h 91% 0.00in /  0mm 0 W/m2
01:20 20.0 °F /  -6.7 °C 17.8 °F /  -7.9 °C 30.24in /  1023.9hPa NNW 1.0mph /  1.6km/h 1.0mph /  1.6km/h 91% 0.00in /  0mm 0 W/m2
01:26 19.8 °F /  -6.8 °C 17.6 °F /  -8 °C 30.24in /  1023.9hPa Calm   1.0mph /  1.6km/h 91% 0.00in /  0mm 0 W/m2
01:32 19.5 °F /  -6.9 °C 17.0 °F /  -8.3 °C 30.23in /  1023.6hPa NNE 1.0mph /  1.6km/h 1.0mph /  1.6km/h 90% 0.00in /  0mm 0 W/m2
01:38 19.2 °F /  -7.1 °C 17.0 °F /  -8.3 °C 30.23in /  1023.6hPa NNE 1.0mph /  1.6km/h 3.0mph /  4.8km/h 91% 0.00in /  0mm 0 W/m2
01:44 18.9 °F /  -7.3 °C 16.5 °F /  -8.6 °C 30.23in /  1023.6hPa NNE 1.0mph /  1.6km/h 1.0mph /  1.6km/h 90% 0.00in /  0mm 0 W/m2
01:50 18.7 °F /  -7.4 °C 16.3 °F /  -8.7 °C 30.23in /  1023.6hPa Calm   2.0mph /  3.2km/h 90% 0.00in /  0mm 0 W/m2
01:56 18.5 °F /  -7.5 °C 16.1 °F /  -8.8 °C 30.24in /  1023.9hPa Calm   2.0mph /  3.2km/h 90% 0.00in /  0mm 0 W/m2
02:02 18.2 °F /  -7.7 °C 15.8 °F /  -9 °C 30.24in /  1023.9hPa Calm     90% 0.00in /  0mm 0 W/m2
02:08 17.9 °F /  -7.8 °C 15.5 °F /  -9.2 °C 30.24in /  1023.9hPa Calm     90% 0.00in /  0mm 0 W/m2
02:14 17.8 °F /  -7.9 °C 15.4 °F /  -9.2 °C 30.24in /  1023.9hPa Calm     90% 0.00in /  0mm 0 W/m2
02:20 17.6 °F /  -8 °C 15.2 °F /  -9.3 °C 30.24in /  1023.9hPa Calm     90% 0.00in /  0mm 0 W/m2
02:26 17.5 °F /  -8.1 °C 15.1 °F /  -9.4 °C 30.24in /  1023.9hPa Calm     90% 0.00in /  0mm 0 W/m2
02:32 17.5 °F /  -8.1 °C 15.1 °F /  -9.4 °C 30.25in /  1024.3hPa Calm     90% 0.00in /  0mm 0 W/m2
02:38 17.5 °F /  -8.1 °C 15.1 °F /  -9.4 °C 30.25in /  1024.3hPa Calm     90% 0.00in /  0mm 0 W/m2
02:44 17.5 °F /  -8.1 °C 15.1 °F /  -9.4 °C 30.25in /  1024.3hPa Calm     90% 0.00in /  0mm 0 W/m2
02:50 17.5 °F /  -8.1 °C 15.1 °F /  -9.4 °C 30.25in /  1024.3hPa Calm     90% 0.00in /  0mm 0 W/m2
02:56 17.6 °F /  -8 °C 15.2 °F /  -9.3 °C 30.25in /  1024.3hPa Calm     90% 0.00in /  0mm 0 W/m2
03:02 17.6 °F /  -8 °C 15.2 °F /  -9.3 °C 30.25in /  1024.3hPa Calm     90% 0.00in /  0mm 0 W/m2
03:08 17.6 °F /  -8 °C 15.2 °F /  -9.3 °C 30.25in /  1024.3hPa Calm     90% 0.00in /  0mm 0 W/m2
03:14 17.6 °F /  -8 °C 15.2 °F /  -9.3 °C 30.25in /  1024.3hPa Calm     90% 0.00in /  0mm 0 W/m2
03:20 17.6 °F /  -8 °C 15.2 °F /  -9.3 °C 30.25in /  1024.3hPa Calm     90% 0.00in /  0mm 0 W/m2
03:26 17.5 °F /  -8.1 °C 15.1 °F /  -9.4 °C 30.26in /  1024.6hPa Calm     90% 0.00in /  0mm 0 W/m2
03:32 17.5 °F /  -8.1 °C 15.1 °F /  -9.4 °C 30.26in /  1024.6hPa Calm     90% 0.00in /  0mm 0 W/m2
03:38 17.4 °F /  -8.1 °C 15.0 °F /  -9.4 °C 30.25in /  1024.3hPa Calm     90% 0.00in /  0mm 0 W/m2
03:44 17.4 °F /  -8.1 °C 15.0 °F /  -9.4 °C 30.25in /  1024.3hPa Calm     90% 0.00in /  0mm 0 W/m2
03:50 17.3 °F /  -8.2 °C 14.9 °F /  -9.5 °C 30.25in /  1024.3hPa Calm     90% 0.00in /  0mm 0 W/m2
03:56 17.3 °F /  -8.2 °C 14.9 °F /  -9.5 °C 30.26in /  1024.6hPa Calm     90% 0.00in /  0mm 0 W/m2
04:02 17.2 °F /  -8.2 °C 14.8 °F /  -9.6 °C 30.26in /  1024.6hPa Calm     90% 0.00in /  0mm 0 W/m2
04:08 17.3 °F /  -8.2 °C 14.9 °F /  -9.5 °C 30.26in /  1024.6hPa Calm     90% 0.00in /  0mm 0 W/m2
04:16 17.2 °F /  -8.2 °C 14.8 °F /  -9.6 °C 30.26in /  1024.6hPa Calm     90% 0.00in /  0mm 0 W/m2
04:22 17.2 °F /  -8.2 °C 14.8 °F /  -9.6 °C 30.26in /  1024.6hPa Calm     90% 0.00in /  0mm 0 W/m2
04:28 17.2 °F /  -8.2 °C 14.8 °F /  -9.6 °C 30.27in /  1024.9hPa Calm     90% 0.00in /  0mm 0 W/m2
04:34 17.2 °F /  -8.2 °C 14.8 °F /  -9.6 °C 30.27in /  1024.9hPa Calm     90% 0.00in /  0mm 0 W/m2
04:40 17.1 °F /  -8.3 °C 14.7 °F /  -9.6 °C 30.27in /  1024.9hPa Calm     90% 0.00in /  0mm 0 W/m2
04:46 17.0 °F /  -8.3 °C 14.6 °F /  -9.7 °C 30.27in /  1024.9hPa Calm     90% 0.00in /  0mm 0 W/m2
04:52 17.0 °F /  -8.3 °C 14.6 °F /  -9.7 °C 30.27in /  1024.9hPa Calm     90% 0.00in /  0mm 0 W/m2
04:58 17.0 °F /  -8.3 °C 14.6 °F /  -9.7 °C 30.28in /  1025.3hPa Calm     90% 0.00in /  0mm 0 W/m2
05:04 16.9 °F /  -8.4 °C 14.5 °F /  -9.7 °C 30.28in /  1025.3hPa Calm     90% 0.00in /  0mm 0 W/m2
05:10 16.9 °F /  -8.4 °C 14.5 °F /  -9.7 °C 30.28in /  1025.3hPa Calm     90% 0.00in /  0mm 0 W/m2
05:16 16.9 °F /  -8.4 °C 14.5 °F /  -9.7 °C 30.28in /  1025.3hPa Calm     90% 0.00in /  0mm 0 W/m2
05:22 16.8 °F /  -8.4 °C 14.4 °F /  -9.8 °C 30.29in /  1025.6hPa Calm     90% 0.00in /  0mm 0 W/m2
05:28 16.8 °F /  -8.4 °C 14.4 °F /  -9.8 °C 30.29in /  1025.6hPa Calm     90% 0.00in /  0mm 0 W/m2
05:34 16.8 °F /  -8.4 °C 14.4 °F /  -9.8 °C 30.29in /  1025.6hPa Calm     90% 0.00in /  0mm 0 W/m2
05:40 16.7 °F /  -8.5 °C 14.3 °F /  -9.8 °C 30.29in /  1025.6hPa Calm     90% 0.00in /  0mm 0 W/m2
05:46 16.6 °F /  -8.6 °C 14.2 °F /  -9.9 °C 30.29in /  1025.6hPa Calm     90% 0.00in /  0mm 0 W/m2
05:52 16.5 °F /  -8.6 °C 14.1 °F /  -9.9 °C 30.29in /  1025.6hPa Calm     90% 0.00in /  0mm 0 W/m2
05:58 16.5 °F /  -8.6 °C 14.1 °F /  -9.9 °C 30.30in /  1026hPa Calm     90% 0.00in /  0mm 0 W/m2
06:04 16.5 °F /  -8.6 °C 14.1 °F /  -9.9 °C 30.30in /  1026hPa Calm     90% 0.00in /  0mm 0 W/m2
06:10 16.8 °F /  -8.4 °C 14.4 °F /  -9.8 °C 30.30in /  1026hPa Calm     90% 0.00in /  0mm 0 W/m2
06:16 16.9 °F /  -8.4 °C 14.5 °F /  -9.7 °C 30.30in /  1026hPa Calm     90% 0.00in /  0mm 0 W/m2
06:22 16.9 °F /  -8.4 °C 14.5 °F /  -9.7 °C 30.30in /  1026hPa Calm     90% 0.00in /  0mm 0 W/m2
06:28 17.0 °F /  -8.3 °C 14.6 °F /  -9.7 °C 30.30in /  1026hPa Calm     90% 0.00in /  0mm 0 W/m2
06:34 17.2 °F /  -8.2 °C 14.8 °F /  -9.6 °C 30.30in /  1026hPa Calm   1.0mph /  1.6km/h 90% 0.00in /  0mm 0 W/m2
06:40 17.5 °F /  -8.1 °C 15.1 °F /  -9.4 °C 30.31in /  1026.3hPa Calm     90% 0.00in /  0mm 0 W/m2
06:46 17.6 °F /  -8 °C 15.2 °F /  -9.3 °C 30.31in /  1026.3hPa Calm     90% 0.00in /  0mm 0 W/m2
06:52 17.7 °F /  -7.9 °C 15.3 °F /  -9.3 °C 30.31in /  1026.3hPa Calm   1.0mph /  1.6km/h 90% 0.00in /  0mm 0 W/m2
06:58 17.8 °F /  -7.9 °C 15.4 °F /  -9.2 °C 30.31in /  1026.3hPa Calm   1.0mph /  1.6km/h 90% 0.00in /  0mm 0 W/m2
07:04 17.9 °F /  -7.8 °C 15.5 °F /  -9.2 °C 30.32in /  1026.6hPa Calm     90% 0.00in /  0mm 0 W/m2
07:10 17.9 °F /  -7.8 °C 15.5 °F /  -9.2 °C 30.32in /  1026.6hPa Calm     90% 0.00in /  0mm 0 W/m2
07:16 17.9 °F /  -7.8 °C 15.5 °F /  -9.2 °C 30.32in /  1026.6hPa Calm     90% 0.00in /  0mm 0 W/m2
07:22 18.0 °F /  -7.8 °C 15.6 °F /  -9.1 °C 30.32in /  1026.6hPa Calm     90% 0.00in /  0mm 0 W/m2
07:28 17.9 °F /  -7.8 °C 15.5 °F /  -9.2 °C 30.32in /  1026.6hPa Calm     90% 0.00in /  0mm 5 W/m2
07:34 17.9 °F /  -7.8 °C 15.5 °F /  -9.2 °C 30.32in /  1026.6hPa Calm     90% 0.00in /  0mm 7 W/m2
07:40 17.9 °F /  -7.8 °C 15.5 °F /  -9.2 °C 30.33in /  1027hPa Calm     90% 0.00in /  0mm 9 W/m2
07:46 18.0 °F /  -7.8 °C 15.6 °F /  -9.1 °C 30.33in /  1027hPa Calm     90% 0.00in /  0mm 12 W/m2
07:52 18.1 °F /  -7.7 °C 15.7 °F /  -9.1 °C 30.33in /  1027hPa Calm     90% 0.00in /  0mm 14 W/m2
07:58 18.2 °F /  -7.7 °C 15.8 °F /  -9 °C 30.33in /  1027hPa Calm     90% 0.00in /  0mm 12 W/m2
08:04 18.3 °F /  -7.6 °C 15.9 °F /  -8.9 °C 30.33in /  1027hPa Calm     90% 0.00in /  0mm 16 W/m2
08:10 18.4 °F /  -7.6 °C 16.0 °F /  -8.9 °C 30.34in /  1027.3hPa Calm     90% 0.00in /  0mm 18 W/m2
08:16 18.5 °F /  -7.5 °C 16.1 °F /  -8.8 °C 30.34in /  1027.3hPa Calm     90% 0.00in /  0mm 26 W/m2
08:22 18.6 °F /  -7.4 °C 16.2 °F /  -8.8 °C 30.34in /  1027.3hPa Calm   1.0mph /  1.6km/h 90% 0.00in /  0mm 32 W/m2
08:28 18.8 °F /  -7.3 °C 16.4 °F /  -8.7 °C 30.35in /  1027.7hPa Calm   1.0mph /  1.6km/h 90% 0.00in /  0mm 42 W/m2
08:34 18.9 °F /  -7.3 °C 16.5 °F /  -8.6 °C 30.35in /  1027.7hPa Calm   1.0mph /  1.6km/h 90% 0.00in /  0mm 49 W/m2
08:40 19.1 °F /  -7.2 °C 16.7 °F /  -8.5 °C 30.35in /  1027.7hPa Calm   2.0mph /  3.2km/h 90% 0.00in /  0mm 46 W/m2
08:46 19.1 °F /  -7.2 °C 16.7 °F /  -8.5 °C 30.35in /  1027.7hPa Calm   2.0mph /  3.2km/h 90% 0.00in /  0mm 53 W/m2
08:52 19.3 °F /  -7.1 °C 16.8 °F /  -8.4 °C 30.35in /  1027.7hPa Calm   1.0mph /  1.6km/h 90% 0.00in /  0mm 63 W/m2
08:58 19.4 °F /  -7 °C 16.9 °F /  -8.4 °C 30.35in /  1027.7hPa Calm   2.0mph /  3.2km/h 90% 0.00in /  0mm 63 W/m2
09:04 19.5 °F /  -6.9 °C 17.0 °F /  -8.3 °C 30.35in /  1027.7hPa WNW 1.0mph /  1.6km/h 3.0mph /  4.8km/h 90% 0.00in /  0mm 62 W/m2
09:10 19.5 °F /  -6.9 °C 17.0 °F /  -8.3 °C 30.35in /  1027.7hPa WNW 1.0mph /  1.6km/h 1.0mph /  1.6km/h 90% 0.00in /  0mm 62 W/m2
09:16 19.8 °F /  -6.8 °C 17.3 °F /  -8.2 °C 30.35in /  1027.7hPa Calm   1.0mph /  1.6km/h 90% 0.00in /  0mm 63 W/m2
09:22 19.9 °F /  -6.7 °C 17.4 °F /  -8.1 °C 30.35in /  1027.7hPa West 1.0mph /  1.6km/h 1.0mph /  1.6km/h 90% 0.00in /  0mm 81 W/m2
09:28 20.2 °F /  -6.6 °C 17.7 °F /  -7.9 °C 30.35in /  1027.7hPa West 1.0mph /  1.6km/h 1.0mph /  1.6km/h 90% 0.00in /  0mm 47 W/m2
09:34 20.1 °F /  -6.6 °C 17.4 °F /  -8.1 °C 30.35in /  1027.7hPa WNW 1.0mph /  1.6km/h 2.0mph /  3.2km/h 89% 0.00in /  0mm 39 W/m2
09:40 19.9 °F /  -6.7 °C 17.2 °F /  -8.2 °C 30.35in /  1027.7hPa WNW 1.0mph /  1.6km/h 1.0mph /  1.6km/h 89% 0.00in /  0mm 76 W/m2
09:46 20.0 °F /  -6.7 °C 17.3 °F /  -8.2 °C 30.36in /  1028hPa Calm   1.0mph /  1.6km/h 89% 0.00in /  0mm 77 W/m2
09:52 20.3 °F /  -6.5 °C 17.6 °F /  -8 °C 30.36in /  1028hPa West 1.0mph /  1.6km/h 1.0mph /  1.6km/h 89% 0.00in /  0mm 83 W/m2
09:58 20.6 °F /  -6.3 °C 17.9 °F /  -7.8 °C 30.36in /  1028hPa West 1.0mph /  1.6km/h 1.0mph /  1.6km/h 89% 0.00in /  0mm 86 W/m2
10:04 20.7 °F /  -6.3 °C 17.7 °F /  -7.9 °C 30.35in /  1027.7hPa WSW 1.0mph /  1.6km/h 3.0mph /  4.8km/h 88% 0.00in /  0mm 88 W/m2
10:10 20.6 °F /  -6.3 °C 17.6 °F /  -8 °C 30.36in /  1028hPa WSW 2.0mph /  3.2km/h 2.0mph /  3.2km/h 88% 0.00in /  0mm 77 W/m2
10:16 20.6 °F /  -6.3 °C 17.6 °F /  -8 °C 30.35in /  1027.7hPa West 2.0mph /  3.2km/h 3.0mph /  4.8km/h 88% 0.00in /  0mm 76 W/m2
10:22 20.6 °F /  -6.3 °C 17.3 °F /  -8.2 °C 30.36in /  1028hPa WSW 2.0mph /  3.2km/h 2.0mph /  3.2km/h 87% 0.00in /  0mm 93 W/m2
10:28 20.8 °F /  -6.2 °C 17.5 °F /  -8.1 °C 30.36in /  1028hPa WSW 2.0mph /  3.2km/h 4.0mph /  6.4km/h 87% 0.00in /  0mm 93 W/m2
10:34 21.0 °F /  -6.1 °C 17.7 °F /  -7.9 °C 30.36in /  1028hPa WSW 2.0mph /  3.2km/h 3.0mph /  4.8km/h 87% 0.00in /  0mm 98 W/m2
10:40 21.3 °F /  -5.9 °C 18.0 °F /  -7.8 °C 30.36in /  1028hPa WNW 1.0mph /  1.6km/h 2.0mph /  3.2km/h 87% 0.00in /  0mm 111 W/m2
10:46 21.6 °F /  -5.8 °C 18.6 °F /  -7.4 °C 30.36in /  1028hPa SW 2.0mph /  3.2km/h 2.0mph /  3.2km/h 88% 0.00in /  0mm 116 W/m2
10:52 21.7 °F /  -5.7 °C 18.4 °F /  -7.6 °C 30.36in /  1028hPa WSW 2.0mph /  3.2km/h 4.0mph /  6.4km/h 87% 0.00in /  0mm 121 W/m2
10:58 21.5 °F /  -5.8 °C 18.2 °F /  -7.7 °C 30.36in /  1028hPa WSW 3.0mph /  4.8km/h 4.0mph /  6.4km/h 87% 0.00in /  0mm 130 W/m2
11:04 21.6 °F /  -5.8 °C 18.3 °F /  -7.6 °C 30.36in /  1028hPa West 2.0mph /  3.2km/h 3.0mph /  4.8km/h 87% 0.00in /  0mm 132 W/m2
11:10 21.8 °F /  -5.7 °C 18.5 °F /  -7.5 °C 30.36in /  1028hPa SW 2.0mph /  3.2km/h 2.0mph /  3.2km/h 87% 0.00in /  0mm 79 W/m2
11:16 21.4 °F /  -5.9 °C 17.9 °F /  -7.8 °C 30.36in /  1028hPa WSW 3.0mph /  4.8km/h 4.0mph /  6.4km/h 86% 0.00in /  0mm 70 W/m2
11:22 21.0 °F /  -6.1 °C 17.5 °F /  -8.1 °C 30.36in /  1028hPa WSW 2.0mph /  3.2km/h 2.0mph /  3.2km/h 86% 0.00in /  0mm 114 W/m2
11:28 21.1 °F /  -6.1 °C 17.8 °F /  -7.9 °C 30.36in /  1028hPa SW 1.0mph /  1.6km/h 2.0mph /  3.2km/h 87% 0.00in /  0mm 121 W/m2
11:34 21.1 °F /  -6.1 °C 17.8 °F /  -7.9 °C 30.36in /  1028hPa West 2.0mph /  3.2km/h 4.0mph /  6.4km/h 87% 0.00in /  0mm 137 W/m2
11:40 21.0 °F /  -6.1 °C 17.7 °F /  -7.9 °C 30.35in /  1027.7hPa West 2.0mph /  3.2km/h 2.0mph /  3.2km/h 87% 0.00in /  0mm 77 W/m2
11:46 21.1 °F /  -6.1 °C 17.8 °F /  -7.9 °C 30.35in /  1027.7hPa West 1.0mph /  1.6km/h 2.0mph /  3.2km/h 87% 0.00in /  0mm 176 W/m2
11:52 21.1 °F /  -6.1 °C 17.8 °F /  -7.9 °C 30.35in /  1027.7hPa West 1.0mph /  1.6km/h 2.0mph /  3.2km/h 87% 0.00in /  0mm 109 W/m2
11:58 21.2 °F /  -6 °C 17.9 °F /  -7.8 °C 30.35in /  1027.7hPa West 1.0mph /  1.6km/h 2.0mph /  3.2km/h 87% 0.00in /  0mm 353 W/m2
12:06 21.5 °F /  -5.8 °C 18.2 °F /  -7.7 °C 30.34in /  1027.3hPa West 1.0mph /  1.6km/h 1.0mph /  1.6km/h 87% 0.00in /  0mm 107 W/m2
12:12 21.5 °F /  -5.8 °C 18.2 °F /  -7.7 °C 30.34in /  1027.3hPa West 1.0mph /  1.6km/h 1.0mph /  1.6km/h 87% 0.00in /  0mm 137 W/m2
12:18 21.8 °F /  -5.7 °C 18.5 °F /  -7.5 °C 30.34in /  1027.3hPa West 1.0mph /  1.6km/h 1.0mph /  1.6km/h 87% 0.00in /  0mm 475 W/m2
12:24 22.3 °F /  -5.4 °C 19.0 °F /  -7.2 °C 30.33in /  1027hPa WSW 1.0mph /  1.6km/h 4.0mph /  6.4km/h 87% 0.00in /  0mm 179 W/m2
12:30 22.2 °F /  -5.4 °C 18.4 °F /  -7.6 °C 30.33in /  1027hPa WSW 2.0mph /  3.2km/h 2.0mph /  3.2km/h 85% 0.00in /  0mm 188 W/m2
12:36 22.3 °F /  -5.4 °C 18.5 °F /  -7.5 °C 30.33in /  1027hPa WSW 2.0mph /  3.2km/h 2.0mph /  3.2km/h 85% 0.00in /  0mm 547 W/m2
12:42 22.7 °F /  -5.2 °C 18.9 °F /  -7.3 °C 30.32in /  1026.6hPa SSE 2.0mph /  3.2km/h 4.0mph /  6.4km/h 85% 0.00in /  0mm 155 W/m2
12:48 22.1 °F /  -5.5 °C 18.0 °F /  -7.8 °C 30.32in /  1026.6hPa WSW 3.0mph /  4.8km/h 5.0mph /  8km/h 84% 0.00in /  0mm 151 W/m2
12:54 22.0 °F /  -5.6 °C 17.6 °F /  -8 °C 30.32in /  1026.6hPa SW 3.0mph /  4.8km/h 5.0mph /  8km/h 83% 0.00in /  0mm 183 W/m2
13:00 21.7 °F /  -5.7 °C 17.3 °F /  -8.2 °C 30.32in /  1026.6hPa West 3.0mph /  4.8km/h 5.0mph /  8km/h 83% 0.00in /  0mm 246 W/m2
13:06 21.7 °F /  -5.7 °C 17.1 °F /  -8.3 °C 30.32in /  1026.6hPa WSW 3.0mph /  4.8km/h 5.0mph /  8km/h 82% 0.00in /  0mm 671 W/m2
13:12 22.2 °F /  -5.4 °C 17.8 °F /  -7.9 °C 30.32in /  1026.6hPa WSW 3.0mph /  4.8km/h 3.0mph /  4.8km/h 83% 0.00in /  0mm 246 W/m2
13:18 22.7 °F /  -5.2 °C 18.0 °F /  -7.8 °C 30.31in /  1026.3hPa WSW 3.0mph /  4.8km/h 4.0mph /  6.4km/h 82% 0.00in /  0mm 278 W/m2
13:24 22.7 °F /  -5.2 °C 18.0 °F /  -7.8 °C 30.30in /  1026hPa South 3.0mph /  4.8km/h 5.0mph /  8km/h 82% 0.00in /  0mm 202 W/m2
13:30 22.5 °F /  -5.3 °C 17.5 °F /  -8.1 °C 30.30in /  1026hPa SW 3.0mph /  4.8km/h 3.0mph /  4.8km/h 81% 0.00in /  0mm 239 W/m2
13:36 22.9 °F /  -5.1 °C 17.9 °F /  -7.8 °C 30.30in /  1026hPa WSW 3.0mph /  4.8km/h 4.0mph /  6.4km/h 81% 0.00in /  0mm 754 W/m2
13:42 23.1 °F /  -4.9 °C 18.1 °F /  -7.7 °C 30.30in /  1026hPa WSW 3.0mph /  4.8km/h 3.0mph /  4.8km/h 81% 0.00in /  0mm 258 W/m2
13:48 22.6 °F /  -5.2 °C 17.4 °F /  -8.1 °C 30.30in /  1026hPa SSW 4.0mph /  6.4km/h 4.0mph /  6.4km/h 80% 0.00in /  0mm 218 W/m2
13:54 22.5 °F /  -5.3 °C 17.3 °F /  -8.2 °C 30.29in /  1025.6hPa WSW 3.0mph /  4.8km/h 5.0mph /  8km/h 80% 0.00in /  0mm 185 W/m2
14:00 22.5 °F /  -5.3 °C 17.3 °F /  -8.2 °C 30.29in /  1025.6hPa NW 2.0mph /  3.2km/h 2.0mph /  3.2km/h 80% 0.00in /  0mm 214 W/m2
14:06 22.5 °F /  -5.3 °C 17.0 °F /  -8.3 °C 30.28in /  1025.3hPa WSW 2.0mph /  3.2km/h 3.0mph /  4.8km/h 79% 0.00in /  0mm 260 W/m2
14:12 22.5 °F /  -5.3 °C 17.0 °F /  -8.3 °C 30.28in /  1025.3hPa West 3.0mph /  4.8km/h 6.0mph /  9.7km/h 79% 0.00in /  0mm 243 W/m2
14:18 22.5 °F /  -5.3 °C 16.4 °F /  -8.7 °C 30.28in /  1025.3hPa West 3.0mph /  4.8km/h 6.0mph /  9.7km/h 77% 0.00in /  0mm 186 W/m2
14:24 22.4 °F /  -5.3 °C 16.6 °F /  -8.6 °C 30.28in /  1025.3hPa WNW 2.0mph /  3.2km/h 3.0mph /  4.8km/h 78% 0.00in /  0mm 202 W/m2
14:30 22.4 °F /  -5.3 °C 16.6 °F /  -8.6 °C 30.28in /  1025.3hPa West 2.0mph /  3.2km/h 2.0mph /  3.2km/h 78% 0.00in /  0mm 227 W/m2
14:36 22.5 °F /  -5.3 °C 16.7 °F /  -8.5 °C 30.28in /  1025.3hPa WSW 1.0mph /  1.6km/h 3.0mph /  4.8km/h 78% 0.00in /  0mm 202 W/m2
14:42 22.6 °F /  -5.2 °C 16.8 °F /  -8.4 °C 30.27in /  1024.9hPa West 2.0mph /  3.2km/h 3.0mph /  4.8km/h 78% 0.00in /  0mm 264 W/m2
14:48 22.8 °F /  -5.1 °C 17.0 °F /  -8.3 °C 30.28in /  1025.3hPa WSW 2.0mph /  3.2km/h 6.0mph /  9.7km/h 78% 0.00in /  0mm 199 W/m2
14:54 22.7 °F /  -5.2 °C 16.6 °F /  -8.6 °C 30.28in /  1025.3hPa WSW 2.0mph /  3.2km/h 3.0mph /  4.8km/h 77% 0.00in /  0mm 179 W/m2
15:00 22.7 °F /  -5.2 °C 16.6 °F /  -8.6 °C 30.28in /  1025.3hPa WSW 2.0mph /  3.2km/h 2.0mph /  3.2km/h 77% 0.00in /  0mm 171 W/m2
15:06 22.6 °F /  -5.2 °C 16.5 °F /  -8.6 °C 30.28in /  1025.3hPa WSW 3.0mph /  4.8km/h 4.0mph /  6.4km/h 77% 0.00in /  0mm 179 W/m2
15:12 22.5 °F /  -5.3 °C 16.7 °F /  -8.5 °C 30.28in /  1025.3hPa SW 3.0mph /  4.8km/h 3.0mph /  4.8km/h 78% 0.00in /  0mm 142 W/m2
15:18 22.5 °F /  -5.3 °C 16.7 °F /  -8.5 °C 30.28in /  1025.3hPa SSW 3.0mph /  4.8km/h 4.0mph /  6.4km/h 78% 0.00in /  0mm 139 W/m2
15:24 22.5 °F /  -5.3 °C 17.0 °F /  -8.3 °C 30.28in /  1025.3hPa South 2.0mph /  3.2km/h 3.0mph /  4.8km/h 79% 0.00in /  0mm 148 W/m2
15:30 22.5 °F /  -5.3 °C 17.0 °F /  -8.3 °C 30.28in /  1025.3hPa South 2.0mph /  3.2km/h 2.0mph /  3.2km/h 79% 0.00in /  0mm 200 W/m2
15:36 22.8 °F /  -5.1 °C 17.3 °F /  -8.2 °C 30.28in /  1025.3hPa SW 2.0mph /  3.2km/h 7.0mph /  11.3km/h 79% 0.00in /  0mm 162 W/m2
15:44 22.4 °F /  -5.3 °C 16.3 °F /  -8.7 °C 30.28in /  1025.3hPa SW 4.0mph /  6.4km/h 4.0mph /  6.4km/h 77% 0.00in /  0mm 142 W/m2
15:50 22.6 °F /  -5.2 °C 16.5 °F /  -8.6 °C 30.28in /  1025.3hPa WSW 3.0mph /  4.8km/h 3.0mph /  4.8km/h 77% 0.00in /  0mm 188 W/m2
15:56 22.8 °F /  -5.1 °C 16.7 °F /  -8.5 °C 30.28in /  1025.3hPa West 2.0mph /  3.2km/h 3.0mph /  4.8km/h 77% 0.00in /  0mm 190 W/m2
16:02 22.8 °F /  -5.1 °C 16.1 °F /  -8.8 °C 30.28in /  1025.3hPa SW 2.0mph /  3.2km/h 7.0mph /  11.3km/h 75% 0.00in /  0mm 109 W/m2
16:08 22.6 °F /  -5.2 °C 15.9 °F /  -8.9 °C 30.29in /  1025.6hPa WSW 3.0mph /  4.8km/h 7.0mph /  11.3km/h 75% 0.00in /  0mm 105 W/m2
16:14 22.4 °F /  -5.3 °C 15.7 °F /  -9.1 °C 30.29in /  1025.6hPa West 3.0mph /  4.8km/h 5.0mph /  8km/h 75% 0.00in /  0mm 88 W/m2
16:20 22.4 °F /  -5.3 °C 15.7 °F /  -9.1 °C 30.29in /  1025.6hPa WSW 3.0mph /  4.8km/h 4.0mph /  6.4km/h 75% 0.00in /  0mm 93 W/m2
16:26 22.3 °F /  -5.4 °C 15.3 °F /  -9.3 °C 30.29in /  1025.6hPa SW 2.0mph /  3.2km/h 4.0mph /  6.4km/h 74% 0.00in /  0mm 63 W/m2
16:32 22.2 °F /  -5.4 °C 15.2 °F /  -9.3 °C 30.30in /  1026hPa SW 2.0mph /  3.2km/h 2.0mph /  3.2km/h 74% 0.00in /  0mm 54 W/m2
16:38 22.2 °F /  -5.4 °C 15.2 °F /  -9.3 °C 30.29in /  1025.6hPa WSW 1.0mph /  1.6km/h 2.0mph /  3.2km/h 74% 0.00in /  0mm 42 W/m2
16:44 22.2 °F /  -5.4 °C 15.2 °F /  -9.3 °C 30.29in /  1025.6hPa WSW 2.0mph /  3.2km/h 3.0mph /  4.8km/h 74% 0.00in /  0mm 37 W/m2
16:50 22.2 °F /  -5.4 °C 15.5 °F /  -9.2 °C 30.29in /  1025.6hPa WSW 1.0mph /  1.6km/h 1.0mph /  1.6km/h 75% 0.00in /  0mm 37 W/m2
16:56 22.2 °F /  -5.4 °C 15.2 °F /  -9.3 °C 30.29in /  1025.6hPa WSW 2.0mph /  3.2km/h 4.0mph /  6.4km/h 74% 0.00in /  0mm 35 W/m2
17:02 22.2 °F /  -5.4 °C 15.2 °F /  -9.3 °C 30.29in /  1025.6hPa WSW 1.0mph /  1.6km/h 2.0mph /  3.2km/h 74% 0.00in /  0mm 23 W/m2
17:08 22.0 °F /  -5.6 °C 15.0 °F /  -9.4 °C 30.29in /  1025.6hPa WSW 1.0mph /  1.6km/h 5.0mph /  8km/h 74% 0.00in /  0mm 19 W/m2
17:14 21.9 °F /  -5.6 °C 14.9 °F /  -9.5 °C 30.29in /  1025.6hPa WSW 1.0mph /  1.6km/h 1.0mph /  1.6km/h 74% 0.00in /  0mm 12 W/m2
17:20 21.8 °F /  -5.7 °C 14.8 °F /  -9.6 °C 30.30in /  1026hPa WSW 1.0mph /  1.6km/h 1.0mph /  1.6km/h 74% 0.00in /  0mm 7 W/m2
17:26 21.8 °F /  -5.7 °C 14.8 °F /  -9.6 °C 30.30in /  1026hPa WSW 1.0mph /  1.6km/h 3.0mph /  4.8km/h 74% 0.00in /  0mm 0 W/m2
17:32 21.8 °F /  -5.7 °C 15.1 °F /  -9.4 °C 30.30in /  1026hPa Calm   1.0mph /  1.6km/h 75% 0.00in /  0mm 0 W/m2
17:38 21.7 °F /  -5.7 °C 14.7 °F /  -9.6 °C 30.30in /  1026hPa West 1.0mph /  1.6km/h 1.0mph /  1.6km/h 74% 0.00in /  0mm 0 W/m2
17:44 21.7 °F /  -5.7 °C 15.0 °F /  -9.4 °C 30.30in /  1026hPa West 1.0mph /  1.6km/h 1.0mph /  1.6km/h 75% 0.00in /  0mm 0 W/m2
17:50 21.6 °F /  -5.8 °C 14.9 °F /  -9.5 °C 30.31in /  1026.3hPa Calm   2.0mph /  3.2km/h 75% 0.00in /  0mm 0 W/m2
17:56 21.6 °F /  -5.8 °C 14.6 °F /  -9.7 °C 30.31in /  1026.3hPa WSW 1.0mph /  1.6km/h 3.0mph /  4.8km/h 74% 0.00in /  0mm 0 W/m2
18:02 21.6 °F /  -5.8 °C 14.9 °F /  -9.5 °C 30.32in /  1026.6hPa WSW 1.0mph /  1.6km/h 2.0mph /  3.2km/h 75% 0.00in /  0mm 0 W/m2
18:08 21.7 °F /  -5.7 °C 14.7 °F /  -9.6 °C 30.32in /  1026.6hPa West 2.0mph /  3.2km/h 3.0mph /  4.8km/h 74% 0.00in /  0mm 0 W/m2
18:14 21.8 °F /  -5.7 °C 14.8 °F /  -9.6 °C 30.32in /  1026.6hPa West 3.0mph /  4.8km/h 4.0mph /  6.4km/h 74% 0.00in /  0mm 0 W/m2
18:20 21.8 °F /  -5.7 °C 15.1 °F /  -9.4 °C 30.32in /  1026.6hPa West 3.0mph /  4.8km/h 3.0mph /  4.8km/h 75% 0.00in /  0mm 0 W/m2
18:26 21.8 °F /  -5.7 °C 15.1 °F /  -9.4 °C 30.33in /  1027hPa WSW 2.0mph /  3.2km/h 5.0mph /  8km/h 75% 0.00in /  0mm 0 W/m2
18:32 21.7 °F /  -5.7 °C 15.3 °F /  -9.3 °C 30.33in /  1027hPa WNW 3.0mph /  4.8km/h 8.0mph /  12.9km/h 76% 0.00in /  0mm 0 W/m2
18:38 21.5 °F /  -5.8 °C 15.7 °F /  -9.1 °C 30.33in /  1027hPa SW 5.0mph /  8km/h 8.0mph /  12.9km/h 78% 0.00in /  0mm 0 W/m2
18:44 21.3 °F /  -5.9 °C 15.8 °F /  -9 °C 30.33in /  1027hPa West 4.0mph /  6.4km/h 7.0mph /  11.3km/h 79% 0.00in /  0mm 0 W/m2
18:50 21.1 °F /  -6.1 °C 15.9 °F /  -8.9 °C 30.34in /  1027.3hPa West 3.0mph /  4.8km/h 4.0mph /  6.4km/h 80% 0.00in /  0mm 0 W/m2
18:56 21.0 °F /  -6.1 °C 15.5 °F /  -9.2 °C 30.34in /  1027.3hPa West 4.0mph /  6.4km/h 7.0mph /  11.3km/h 79% 0.00in /  0mm 0 W/m2
19:02 20.8 °F /  -6.2 °C 15.3 °F /  -9.3 °C 30.34in /  1027.3hPa WSW 4.0mph /  6.4km/h 4.0mph /  6.4km/h 79% 0.00in /  0mm 0 W/m2
19:08 20.5 °F /  -6.4 °C 14.7 °F /  -9.6 °C 30.35in /  1027.7hPa West 4.0mph /  6.4km/h 4.0mph /  6.4km/h 78% 0.00in /  0mm 0 W/m2
19:14 20.2 °F /  -6.6 °C 14.1 °F /  -9.9 °C 30.35in /  1027.7hPa West 4.0mph /  6.4km/h 4.0mph /  6.4km/h 77% 0.00in /  0mm 0 W/m2
19:20 20.0 °F /  -6.7 °C 13.6 °F /  -10.2 °C 30.35in /  1027.7hPa WSW 4.0mph /  6.4km/h 4.0mph /  6.4km/h 76% 0.00in /  0mm 0 W/m2
19:26 19.9 °F /  -6.7 °C 13.6 °F /  -10.2 °C 30.35in /  1027.7hPa WSW 3.0mph /  4.8km/h 4.0mph /  6.4km/h 76% 0.00in /  0mm 0 W/m2
19:32 19.7 °F /  -6.8 °C 13.7 °F /  -10.2 °C 30.35in /  1027.7hPa WSW 2.0mph /  3.2km/h 3.0mph /  4.8km/h 77% 0.00in /  0mm 0 W/m2
19:38 19.5 °F /  -6.9 °C 13.5 °F /  -10.3 °C 30.35in /  1027.7hPa SW 3.0mph /  4.8km/h 5.0mph /  8km/h 77% 0.00in /  0mm 0 W/m2
19:44 19.3 °F /  -7.1 °C 13.3 °F /  -10.4 °C 30.35in /  1027.7hPa WSW 3.0mph /  4.8km/h 3.0mph /  4.8km/h 77% 0.00in /  0mm 0 W/m2
19:50 19.0 °F /  -7.2 °C 12.7 °F /  -10.7 °C 30.35in /  1027.7hPa WNW 3.0mph /  4.8km/h 3.0mph /  4.8km/h 76% 0.00in /  0mm 0 W/m2
19:56 18.7 °F /  -7.4 °C 12.1 °F /  -11.1 °C 30.35in /  1027.7hPa WSW 4.0mph /  6.4km/h 7.0mph /  11.3km/h 75% 0.00in /  0mm 0 W/m2
20:02 18.5 °F /  -7.5 °C 11.9 °F /  -11.2 °C 30.35in /  1027.7hPa SW 4.0mph /  6.4km/h 4.0mph /  6.4km/h 75% 0.00in /  0mm 0 W/m2
20:08 18.3 °F /  -7.6 °C 11.7 °F /  -11.3 °C 30.35in /  1027.7hPa WSW 4.0mph /  6.4km/h 7.0mph /  11.3km/h 75% 0.00in /  0mm 0 W/m2
20:14 18.1 °F /  -7.7 °C 11.2 °F /  -11.6 °C 30.36in /  1028hPa WSW 3.0mph /  4.8km/h 6.0mph /  9.7km/h 74% 0.00in /  0mm 0 W/m2
20:20 18.0 °F /  -7.8 °C 11.1 °F /  -11.6 °C 30.36in /  1028hPa SSW 3.0mph /  4.8km/h 3.0mph /  4.8km/h 74% 0.00in /  0mm 0 W/m2
20:26 17.9 °F /  -7.8 °C 11.0 °F /  -11.7 °C 30.36in /  1028hPa West 4.0mph /  6.4km/h 7.0mph /  11.3km/h 74% 0.00in /  0mm 0 W/m2
20:32 17.8 °F /  -7.9 °C 11.2 °F /  -11.6 °C 30.36in /  1028hPa WSW 4.0mph /  6.4km/h 10.0mph /  16.1km/h 75% 0.00in /  0mm 0 W/m2
20:38 17.8 °F /  -7.9 °C 10.9 °F /  -11.7 °C 30.36in /  1028hPa WSW 3.0mph /  4.8km/h 10.0mph /  16.1km/h 74% 0.00in /  0mm 0 W/m2
20:44 17.7 °F /  -7.9 °C 10.8 °F /  -11.8 °C 30.36in /  1028hPa West 2.0mph /  3.2km/h 4.0mph /  6.4km/h 74% 0.00in /  0mm 0 W/m2
20:50 17.5 °F /  -8.1 °C 10.9 °F /  -11.7 °C 30.36in /  1028hPa West 3.0mph /  4.8km/h 3.0mph /  4.8km/h 75% 0.00in /  0mm 0 W/m2
20:56 17.5 °F /  -8.1 °C 10.9 °F /  -11.7 °C 30.37in /  1028.3hPa SW 3.0mph /  4.8km/h 3.0mph /  4.8km/h 75% 0.00in /  0mm 0 W/m2
21:02 17.3 °F /  -8.2 °C 10.7 °F /  -11.8 °C 30.37in /  1028.3hPa SSW 3.0mph /  4.8km/h 4.0mph /  6.4km/h 75% 0.00in /  0mm 0 W/m2
21:08 17.3 °F /  -8.2 °C 10.7 °F /  -11.8 °C 30.37in /  1028.3hPa SSW 4.0mph /  6.4km/h 8.0mph /  12.9km/h 75% 0.00in /  0mm 0 W/m2
21:14 17.4 °F /  -8.1 °C 10.8 °F /  -11.8 °C 30.37in /  1028.3hPa SW 4.0mph /  6.4km/h 7.0mph /  11.3km/h 75% 0.00in /  0mm 0 W/m2
21:20 17.3 °F /  -8.2 °C 10.7 °F /  -11.8 °C 30.38in /  1028.7hPa SW 4.0mph /  6.4km/h 4.0mph /  6.4km/h 75% 0.00in /  0mm 0 W/m2
21:26 17.2 °F /  -8.2 °C 10.6 °F /  -11.9 °C 30.38in /  1028.7hPa SSW 3.0mph /  4.8km/h 7.0mph /  11.3km/h 75% 0.00in /  0mm 0 W/m2
21:32 17.2 °F /  -8.2 °C 10.6 °F /  -11.9 °C 30.38in /  1028.7hPa West 4.0mph /  6.4km/h 4.0mph /  6.4km/h 75% 0.00in /  0mm 0 W/m2
21:38 17.1 °F /  -8.3 °C 10.5 °F /  -11.9 °C 30.38in /  1028.7hPa WSW 4.0mph /  6.4km/h 6.0mph /  9.7km/h 75% 0.00in /  0mm 0 W/m2
21:44 17.1 °F /  -8.3 °C 10.8 °F /  -11.8 °C 30.38in /  1028.7hPa SW 5.0mph /  8km/h 8.0mph /  12.9km/h 76% 0.00in /  0mm 0 W/m2
21:50 17.2 °F /  -8.2 °C 10.9 °F /  -11.7 °C 30.39in /  1029hPa WSW 5.0mph /  8km/h 5.0mph /  8km/h 76% 0.00in /  0mm 0 W/m2
21:56 17.1 °F /  -8.3 °C 10.8 °F /  -11.8 °C 30.40in /  1029.3hPa West 5.0mph /  8km/h 7.0mph /  11.3km/h 76% 0.00in /  0mm 0 W/m2
22:02 17.1 °F /  -8.3 °C 10.8 °F /  -11.8 °C 30.40in /  1029.3hPa West 4.0mph /  6.4km/h 5.0mph /  8km/h 76% 0.00in /  0mm 0 W/m2
22:08 17.1 °F /  -8.3 °C 10.8 °F /  -11.8 °C 30.40in /  1029.3hPa WSW 4.0mph /  6.4km/h 5.0mph /  8km/h 76% 0.00in /  0mm 0 W/m2
22:14 17.1 °F /  -8.3 °C 10.8 °F /  -11.8 °C 30.40in /  1029.3hPa SW 4.0mph /  6.4km/h 4.0mph /  6.4km/h 76% 0.00in /  0mm 0 W/m2
22:20 17.0 °F /  -8.3 °C 10.7 °F /  -11.8 °C 30.40in /  1029.3hPa WSW 4.0mph /  6.4km/h 4.0mph /  6.4km/h 76% 0.00in /  0mm 0 W/m2
22:26 16.9 °F /  -8.4 °C 10.6 °F /  -11.9 °C 30.40in /  1029.3hPa WSW 4.0mph /  6.4km/h 5.0mph /  8km/h 76% 0.00in /  0mm 0 W/m2
22:32 16.8 °F /  -8.4 °C 10.5 °F /  -11.9 °C 30.40in /  1029.3hPa WSW 3.0mph /  4.8km/h 3.0mph /  4.8km/h 76% 0.00in /  0mm 0 W/m2
22:38 16.6 °F /  -8.6 °C 10.3 °F /  -12.1 °C 30.40in /  1029.3hPa WSW 2.0mph /  3.2km/h 3.0mph /  4.8km/h 76% 0.00in /  0mm 0 W/m2
22:44 16.7 °F /  -8.5 °C 10.7 °F /  -11.8 °C 30.40in /  1029.3hPa WSW 3.0mph /  4.8km/h 5.0mph /  8km/h 77% 0.00in /  0mm 0 W/m2
22:50 16.6 °F /  -8.6 °C 10.6 °F /  -11.9 °C 30.41in /  1029.7hPa WSW 3.0mph /  4.8km/h 3.0mph /  4.8km/h 77% 0.00in /  0mm 0 W/m2
22:56 16.6 °F /  -8.6 °C 10.6 °F /  -11.9 °C 30.41in /  1029.7hPa WSW 3.0mph /  4.8km/h 6.0mph /  9.7km/h 77% 0.00in /  0mm 0 W/m2
23:02 16.5 °F /  -8.6 °C 10.5 °F /  -11.9 °C 30.41in /  1029.7hPa WSW 3.0mph /  4.8km/h 6.0mph /  9.7km/h 77% 0.00in /  0mm 0 W/m2
23:08 16.4 °F /  -8.7 °C 10.4 °F /  -12 °C 30.41in /  1029.7hPa WSW 3.0mph /  4.8km/h 6.0mph /  9.7km/h 77% 0.00in /  0mm 0 W/m2
23:14 16.2 °F /  -8.8 °C 10.3 °F /  -12.1 °C 30.41in /  1029.7hPa WSW 2.0mph /  3.2km/h 3.0mph /  4.8km/h 77% 0.00in /  0mm 0 W/m2
23:20 16.0 °F /  -8.9 °C 10.1 °F /  -12.2 °C 30.41in /  1029.7hPa WSW 2.0mph /  3.2km/h 4.0mph /  6.4km/h 77% 0.00in /  0mm 0 W/m2
23:26 15.8 °F /  -9 °C 9.9 °F /  -12.3 °C 30.41in /  1029.7hPa WSW 2.0mph /  3.2km/h 4.0mph /  6.4km/h 77% 0.00in /  0mm 0 W/m2
23:32 15.7 °F /  -9.1 °C 9.8 °F /  -12.3 °C 30.41in /  1029.7hPa WSW 2.0mph /  3.2km/h 4.0mph /  6.4km/h 77% 0.00in /  0mm 0 W/m2
23:38 15.6 °F /  -9.1 °C 9.7 °F /  -12.4 °C 30.41in /  1029.7hPa SW 3.0mph /  4.8km/h 4.0mph /  6.4km/h 77% 0.00in /  0mm 0 W/m2
23:44 15.6 °F /  -9.1 °C 9.7 °F /  -12.4 °C 30.41in /  1029.7hPa WSW 2.0mph /  3.2km/h 3.0mph /  4.8km/h 77% 0.00in /  0mm 0 W/m2
23:50 15.6 °F /  -9.1 °C 9.7 °F /  -12.4 °C 30.41in /  1029.7hPa WSW 2.0mph /  3.2km/h 4.0mph /  6.4km/h 77% 0.00in /  0mm 0 W/m2
23:56 15.5 °F /  -9.2 °C 9.6 °F /  -12.4 °C 30.41in /  1029.7hPa WSW 2.0mph /  3.2km/h 4.0mph /  6.4km/h 77% 0.00in /  0mm 0 W/m2
Country Meadow, Clay, NY, USA
Compliments of Weather Underground - 2 mb